Aktuell METAR/TAF ESNU/UME

172350Z 32003KT 1500 BCFG NSC 07/07 Q1013=

172330Z 1800/1809 VRB02KT CAVOK TEMPO 1800/1804 0300 FG VV002=
Källa: Luftfartsverket (aro.lfv.se)